Time;durP1;ratioP1;P1;durP2;ratioP2;P2;SDS_P1;SDS_P2;PMS_P1;PMS_P2;Temp;Humidity;BMP_temperature;BMP_pressure;BME280_temperature;BME280_humidity;BME280_pressure;Samples;Min_cycle;Max_cycle;Signal;HPM_P1;HPM_P2
2023/09/15 00:06:48;;;;;;;4.20;2.00;;;;;;;15.07;76.58;100114.67;436220;1256;139223;-62
2023/09/15 00:16:54;;;;;;;4.40;2.40;;;;;;;14.96;76.38;100122.91;435753;1253;139279;-62
2023/09/15 00:27:00;;;;;;;2.40;1.90;;;;;;;14.81;76.32;100130.35;435960;1254;139190;-61
2023/09/15 00:37:06;;;;;;;2.90;1.80;;;;;;;14.64;76.25;100131.14;435875;1254;139234;-61
2023/09/15 00:47:12;;;;;;;2.50;1.50;;;;;;;14.41;76.27;100126.48;435488;1256;139627;-61
2023/09/15 00:57:18;;;;;;;5.00;2.00;;;;;;;14.13;76.50;100134.41;435590;1253;138932;-62
2023/09/15 01:07:25;;;;;;;4.60;2.10;;;;;;;13.90;77.06;100139.71;436001;1253;139149;-62
2023/09/15 01:17:38;;;;;;;3.60;1.70;;;;;;;13.71;77.23;100144.73;435316;1254;140880;-60
2023/09/15 01:27:59;;;;;;;4.00;2.00;;;;;;;13.50;77.45;100156.64;435341;1253;139486;-60
2023/09/15 01:38:05;;;;;;;3.30;1.50;;;;;;;13.27;77.60;100153.20;435305;1256;139071;-60
2023/09/15 01:48:12;;;;;;;2.70;2.00;;;;;;;13.05;77.61;100163.61;435312;1253;139260;-60
2023/09/15 01:58:19;;;;;;;1.90;1.20;;;;;;;12.86;77.78;100172.52;435372;1254;140151;-61
2023/09/15 02:08:24;;;;;;;1.90;1.70;;;;;;;12.67;78.15;100173.76;435685;1253;139113;-61
2023/09/15 02:18:30;;;;;;;3.30;1.10;;;;;;;12.50;78.50;100174.80;435508;1254;140085;-61
2023/09/15 02:28:36;;;;;;;2.20;1.10;;;;;;;12.34;78.69;100175.98;435572;1253;139363;-59
2023/09/15 02:38:42;;;;;;;4.20;1.20;;;;;;;12.16;78.82;100182.85;435476;1256;139081;-60
2023/09/15 02:48:48;;;;;;;2.40;1.40;;;;;;;12.01;78.92;100189.00;435613;1254;139716;-61
2023/09/15 02:58:54;;;;;;;2.10;1.10;;;;;;;11.90;78.89;100185.80;435586;1256;139020;-61
2023/09/15 03:09:00;;;;;;;1.50;1.00;;;;;;;11.76;79.01;100193.78;435646;1253;139001;-59
2023/09/15 03:19:06;;;;;;;2.60;1.10;;;;;;;11.66;79.19;100194.58;435691;1256;139192;-60
2023/09/15 03:29:12;;;;;;;1.80;1.50;;;;;;;11.58;79.41;100202.26;436290;1253;139376;-61
2023/09/15 03:39:20;;;;;;;1.40;1.20;;;;;;;11.48;79.58;100207.34;435602;1253;140770;-61
2023/09/15 03:49:26;;;;;;;1.80;1.50;;;;;;;11.39;79.53;100212.27;435603;1253;140507;-61
2023/09/15 03:59:32;;;;;;;1.60;1.00;;;;;;;11.28;79.65;100212.69;436065;1256;140692;-60
2023/09/15 04:09:38;;;;;;;5.30;2.00;;;;;;;11.16;79.69;100223.19;435621;1253;139118;-62
2023/09/15 04:19:43;;;;;;;3.00;1.30;;;;;;;11.06;79.97;100235.48;435629;1253;139593;-62
2023/09/15 04:29:56;;;;;;;1.60;1.40;;;;;;;11.02;80.14;100237.63;435823;1256;141289;-62
2023/09/15 04:40:05;;;;;;;1.80;0.90;;;;;;;11.06;80.06;100250.21;436199;1253;140350;-62
2023/09/15 04:50:11;;;;;;;2.60;1.40;;;;;;;11.14;80.13;100255.89;436031;1256;138919;-60
2023/09/15 05:00:23;;;;;;;2.10;1.20;;;;;;;11.24;79.89;100261.98;436692;1253;140643;-60
2023/09/15 05:10:29;;;;;;;3.00;1.80;;;;;;;11.40;79.84;100267.41;437503;1253;139257;-64
2023/09/15 05:20:35;;;;;;;0.90;0.80;;;;;;;11.92;80.49;100271.27;436085;1254;139158;-61
2023/09/15 05:30:41;;;;;;;3.00;1.30;;;;;;;14.41;81.07;100270.02;435479;1256;139829;-61
2023/09/15 05:40:47;;;;;;;3.00;1.80;;;;;;;20.02;75.54;100274.06;435538;1256;139656;-64
2023/09/15 05:50:53;;;;;;;9.80;2.10;;;;;;;24.39;65.41;100276.38;435222;1256;139358;-67
2023/09/15 06:00:59;;;;;;;2.20;1.60;;;;;;;28.12;56.64;100278.40;435251;1256;138397;-65
2023/09/15 06:11:06;;;;;;;2.80;1.30;;;;;;;29.95;48.33;100276.70;444610;1252;139181;-66
2023/09/15 06:21:12;;;;;;;2.60;1.30;;;;;;;31.88;44.23;100273.68;435828;1256;139519;-69
2023/09/15 06:31:18;;;;;;;1.90;1.20;;;;;;;33.80;40.43;100278.48;435396;1257;138347;-70
2023/09/15 06:41:24;;;;;;;1.50;1.00;;;;;;;35.48;37.63;100278.75;436831;1253;138135;-76
2023/09/15 06:51:32;;;;;;;2.40;1.40;;;;;;;37.37;35.02;100273.14;438310;1257;139733;-75
2023/09/15 07:01:39;;;;;;;1.50;1.40;;;;;;;38.89;32.00;100270.55;438398;1256;138489;-68
2023/09/15 07:11:45;;;;;;;3.10;1.20;;;;;;;40.62;30.13;100272.35;437282;1257;138357;-70
2023/09/15 07:21:51;;;;;;;1.00;0.90;;;;;;;42.09;27.17;100276.59;435335;1257;138699;-69
2023/09/15 07:31:59;;;;;;;2.10;0.70;;;;;;;41.52;24.98;100277.42;436772;1256;138412;-72
2023/09/15 07:42:08;;;;;;;1.40;0.90;;;;;;;41.68;24.18;100281.46;438047;1253;138888;-70
2023/09/15 07:52:16;;;;;;;1.30;1.10;;;;;;;42.98;23.19;100283.29;436189;1256;139397;-67
2023/09/15 08:02:23;;;;;;;0.70;0.70;;;;;;;43.44;21.50;100283.52;435283;1253;138555;-74
2023/09/15 08:12:30;;;;;;;1.30;0.90;;;;;;;43.04;20.65;100285.73;436743;1256;138473;-66
2023/09/15 08:22:38;;;;;;;1.40;0.80;;;;;;;42.84;19.93;100291.05;435297;1256;139100;-66
2023/09/15 08:32:44;;;;;;;0.90;0.90;;;;;;;42.01;19.61;100288.05;435289;1258;138806;-71
2023/09/15 08:42:50;;;;;;;1.30;0.80;;;;;;;40.56;19.78;100288.58;438071;1256;138523;-71
2023/09/15 08:52:57;;;;;;;2.20;0.80;;;;;;;35.10;20.93;100283.36;438133;1256;138733;-70
2023/09/15 09:03:04;;;;;;;2.90;0.90;;;;;;;30.30;22.86;100288.34;437169;1253;138714;-76
2023/09/15 09:13:11;;;;;;;1.10;1.10;;;;;;;27.23;25.09;100289.60;438916;1257;140572;-70
2023/09/15 09:23:17;;;;;;;1.30;0.90;;;;;;;25.31;27.07;100301.38;435750;1253;139594;-62
2023/09/15 09:33:24;;;;;;;2.60;1.20;;;;;;;24.12;28.72;100303.10;435595;1255;140340;-63
2023/09/15 09:43:29;;;;;;;2.00;1.40;;;;;;;23.40;29.76;100305.48;435481;1254;138497;-62
2023/09/15 09:53:36;;;;;;;0.80;0.80;;;;;;;22.70;30.61;100308.81;435769;1256;138646;-63
2023/09/15 10:03:42;;;;;;;1.20;0.80;;;;;;;22.14;31.66;100304.13;435791;1257;138825;-67
2023/09/15 10:13:51;;;;;;;1.40;1.00;;;;;;;21.71;32.66;100300.95;435759;1254;138831;-67
2023/09/15 10:24:06;;;;;;;3.30;1.80;;;;;;;21.09;34.02;100295.39;435605;1255;139479;-67
2023/09/15 10:34:12;;;;;;;2.90;1.30;;;;;;;20.56;35.49;100295.15;436313;1253;140159;-64
2023/09/15 10:44:29;;;;;;;3.30;1.90;;;;;;;20.04;37.70;100294.81;436277;1256;138503;-64
2023/09/15 10:54:36;;;;;;;3.80;1.40;;;;;;;19.83;38.82;100289.96;435757;1258;139357;-65
2023/09/15 11:04:42;;;;;;;2.70;1.40;;;;;;;19.70;39.37;100282.41;435762;1253;140285;-65
2023/09/15 11:14:48;;;;;;;2.10;1.20;;;;;;;19.61;40.07;100275.39;435774;1256;139113;-65
2023/09/15 11:24:55;;;;;;;1.60;1.30;;;;;;;19.52;41.39;100265.61;435598;1256;138497;-67
2023/09/15 11:35:20;;;;;;;1.60;1.30;;;;;;;19.49;41.75;100254.71;435692;1253;138962;-68
2023/09/15 11:45:30;;;;;;;3.00;1.60;;;;;;;19.37;41.92;100247.20;436219;1256;138777;-71
2023/09/15 11:55:36;;;;;;;2.50;1.40;;;;;;;19.39;41.99;100243.50;436137;1254;138419;-71
2023/09/15 12:05:43;;;;;;;1.80;1.20;;;;;;;19.33;42.36;100243.48;435962;1256;139559;-73
2023/09/15 12:15:49;;;;;;;4.00;1.90;;;;;;;19.28;42.60;100250.86;435639;1254;139288;-69
2023/09/15 12:25:56;;;;;;;1.50;1.30;;;;;;;19.22;42.65;100246.79;435582;1256;138912;-65
2023/09/15 12:36:06;;;;;;;2.40;1.30;;;;;;;19.19;42.69;100236.40;435452;1256;138766;-65
2023/09/15 12:46:12;;;;;;;3.00;1.50;;;;;;;19.18;42.47;100223.20;435430;1256;139693;-64
2023/09/15 12:56:18;;;;;;;2.20;1.00;;;;;;;19.16;43.06;100218.42;435297;1258;138980;-65
2023/09/15 13:06:24;;;;;;;1.70;1.20;;;;;;;19.23;43.35;100209.95;435629;1256;139732;-64
2023/09/15 13:16:30;;;;;;;2.50;1.60;;;;;;;19.24;43.66;100204.73;435838;1257;139322;-64
2023/09/15 13:26:36;;;;;;;1.20;1.00;;;;;;;19.20;43.99;100193.34;435992;1257;138695;-65
2023/09/15 13:36:42;;;;;;;3.20;1.40;;;;;;;19.25;44.59;100182.40;436393;1254;139556;-66
2023/09/15 13:46:48;;;;;;;4.70;1.70;;;;;;;19.29;44.98;100170.35;435926;1257;138515;-66
2023/09/15 13:56:53;;;;;;;2.20;1.80;;;;;;;19.35;45.11;100169.45;435494;1256;138798;-67
2023/09/15 14:07:04;;;;;;;2.10;1.70;;;;;;;19.39;45.44;100164.51;435668;1256;139454;-65
2023/09/15 14:17:10;;;;;;;3.40;1.80;;;;;;;19.41;45.23;100162.49;435500;1255;139922;-65
2023/09/15 14:27:16;;;;;;;2.60;1.20;;;;;;;19.44;45.43;100156.04;435391;1256;139426;-64
2023/09/15 14:37:32;;;;;;;2.70;2.00;;;;;;;19.46;45.33;100145.92;435768;1254;138499;-65
2023/09/15 14:47:38;;;;;;;1.90;1.60;;;;;;;19.49;45.42;100140.00;435664;1257;138575;-69
2023/09/15 14:57:44;;;;;;;2.20;1.20;;;;;;;19.51;45.31;100140.13;436748;1256;138794;-71
2023/09/15 15:07:51;;;;;;;2.20;1.70;;;;;;;19.49;45.40;100136.77;435961;1256;138867;-71
2023/09/15 15:17:58;;;;;;;2.80;2.10;;;;;;;19.49;45.88;100137.46;435696;1254;138443;-70
2023/09/15 15:28:04;;;;;;;2.50;1.30;;;;;;;19.58;45.92;100133.58;436166;1254;139843;-71
2023/09/15 15:38:10;;;;;;;2.10;1.50;;;;;;;19.94;45.47;100124.27;435640;1256;138710;-71
2023/09/15 15:48:16;;;;;;;1.90;1.70;;;;;;;19.68;45.42;100123.50;435433;1254;140141;-69
2023/09/15 15:58:22;;;;;;;1.90;1.70;;;;;;;19.39;45.84;100128.49;435724;1256;138724;-70
2023/09/15 16:08:29;;;;;;;5.30;2.20;;;;;;;19.14;46.17;100134.68;436401;1256;138496;-69
2023/09/15 16:18:37;;;;;;;2.40;2.10;;;;;;;18.88;46.46;100141.18;435421;1256;139039;-71
2023/09/15 16:28:43;;;;;;;4.70;2.10;;;;;;;18.62;46.78;100149.16;435948;1256;138583;-70
2023/09/15 16:38:49;;;;;;;1.90;1.80;;;;;;;18.33;47.18;100149.08;435478;1255;139453;-69
2023/09/15 16:48:55;;;;;;;5.20;2.10;;;;;;;18.04;47.81;100154.09;435660;1256;138999;-70
2023/09/15 16:59:01;;;;;;;4.90;1.80;;;;;;;17.74;48.42;100153.75;435739;1254;138341;-71
2023/09/15 17:09:07;;;;;;;8.70;2.20;;;;;;;17.41;49.20;100160.89;435662;1254;138838;-74
2023/09/15 17:19:13;;;;;;;5.20;2.30;;;;;;;17.15;50.04;100169.61;435819;1256;139043;-66
2023/09/15 17:29:19;;;;;;;5.50;2.40;;;;;;;16.90;50.73;100172.13;435872;1254;138452;-68
2023/09/15 17:39:26;;;;;;;6.90;2.50;;;;;;;16.65;51.57;100172.86;435774;1254;140285;-66
2023/09/15 17:49:32;;;;;;;7.80;2.80;;;;;;;16.44;52.47;100179.69;436094;1254;139052;-68
2023/09/15 17:59:41;;;;;;;6.50;2.60;;;;;;;16.22;53.11;100189.48;435918;1254;139243;-67
2023/09/15 18:09:51;;;;;;;4.60;2.30;;;;;;;16.01;53.79;100196.23;435573;1256;140056;-67
2023/09/15 18:19:56;;;;;;;7.40;3.30;;;;;;;15.78;54.61;100199.38;435431;1254;138685;-66
2023/09/15 18:30:03;;;;;;;10.50;4.70;;;;;;;15.56;55.50;100203.28;435243;1256;139762;-66
2023/09/15 18:40:11;;;;;;;5.10;3.40;;;;;;;15.41;56.11;100209.92;435171;1253;139168;-66
2023/09/15 18:50:17;;;;;;;5.60;3.80;;;;;;;15.28;56.55;100213.86;435805;1253;139769;-66
2023/09/15 19:00:24;;;;;;;4.10;2.90;;;;;;;15.21;57.09;100215.73;435361;1257;139062;-66
2023/09/15 19:10:30;;;;;;;7.80;4.30;;;;;;;15.12;57.46;100218.86;436723;1252;141490;-66
2023/09/15 19:20:36;;;;;;;6.50;3.00;;;;;;;15.02;57.94;100216.13;435147;1256;139824;-66
2023/09/15 19:30:42;;;;;;;9.80;4.40;;;;;;;14.91;58.48;100212.84;435349;1253;138465;-67
2023/09/15 19:40:49;;;;;;;4.80;3.60;;;;;;;14.78;59.01;100213.19;435215;1254;140432;-67
2023/09/15 19:50:55;;;;;;;6.70;3.40;;;;;;;14.65;59.56;100209.90;435576;1254;138663;-66
2023/09/15 20:01:00;;;;;;;8.90;3.50;;;;;;;14.55;59.99;100214.11;435485;1253;138821;-66
2023/09/15 20:11:07;;;;;;;7.00;3.70;;;;;;;14.40;60.38;100209.48;434999;1256;138778;-66
2023/09/15 20:21:12;;;;;;;4.10;2.50;;;;;;;14.32;60.88;100213.74;435082;1253;139439;-65
2023/09/15 20:31:18;;;;;;;4.50;2.70;;;;;;;14.26;60.84;100211.30;435176;1253;139163;-68
2023/09/15 20:41:25;;;;;;;4.60;3.30;;;;;;;14.18;60.90;100211.58;435115;1253;140002;-66
2023/09/15 20:51:31;;;;;;;4.50;2.30;;;;;;;14.11;60.90;100211.29;435056;1254;139676;-67
2023/09/15 21:01:37;;;;;;;5.10;3.50;;;;;;;14.03;61.13;100214.47;435124;1253;140240;-67
2023/09/15 21:11:43;;;;;;;6.40;3.20;;;;;;;13.88;61.40;100217.13;435199;1253;139369;-66
2023/09/15 21:21:49;;;;;;;4.30;2.80;;;;;;;13.69;61.75;100208.83;434956;1254;140426;-66
2023/09/15 21:31:55;;;;;;;5.40;3.00;;;;;;;13.51;62.34;100222.38;435132;1253;141579;-67
2023/09/15 21:42:01;;;;;;;9.00;2.80;;;;;;;13.36;62.64;100225.23;434961;1256;139695;-66
2023/09/15 21:52:07;;;;;;;6.30;3.50;;;;;;;13.23;63.04;100224.83;435124;1253;139377;-67
2023/09/15 22:02:13;;;;;;;6.20;3.60;;;;;;;13.08;63.36;100213.90;435394;1257;139613;-66
2023/09/15 22:12:21;;;;;;;5.90;2.90;;;;;;;12.91;63.76;100208.25;435108;1253;139755;-66
2023/09/15 22:22:27;;;;;;;6.70;3.50;;;;;;;12.77;64.18;100215.28;435169;1257;141368;-66
2023/09/15 22:32:37;;;;;;;5.00;2.60;;;;;;;12.66;64.48;100209.64;435242;1257;140474;-65
2023/09/15 22:42:44;;;;;;;4.20;2.90;;;;;;;12.54;64.93;100206.37;436680;1256;139091;-67
2023/09/15 22:52:50;;;;;;;5.70;3.80;;;;;;;12.39;65.23;100201.46;435810;1253;139462;-65
2023/09/15 23:02:56;;;;;;;4.60;2.90;;;;;;;12.26;65.61;100198.60;435538;1253;139889;-66
2023/09/15 23:13:02;;;;;;;5.80;3.20;;;;;;;12.12;66.04;100189.77;435645;1254;139888;-65
2023/09/15 23:23:08;;;;;;;5.30;3.30;;;;;;;11.97;66.41;100193.81;436073;1254;140466;-67
2023/09/15 23:33:14;;;;;;;3.90;3.10;;;;;;;11.83;66.80;100192.86;435688;1253;139224;-66
2023/09/15 23:43:20;;;;;;;5.40;3.30;;;;;;;11.70;67.37;100185.01;436216;1256;139842;-65
2023/09/15 23:53:26;;;;;;;4.70;3.20;;;;;;;11.63;67.78;100178.27;437210;1253;139230;-65
